Time;durP1;ratioP1;P1;durP2;ratioP2;P2;SDS_P1;SDS_P2;PMS_P1;PMS_P2;Temp;Humidity;BMP_temperature;BMP_pressure;BME280_temperature;BME280_humidity;BME280_pressure;Samples;Min_cycle;Max_cycle;Signal;HPM_P1;HPM_P2
2022/03/18 00:00:27;;;;;;;1.67;1.58;;;;;;;6.53;66.43;100466.69;4106288;28;20223;-52
2022/03/18 00:02:28;;;;;;;1.52;1.42;;;;;;;6.49;66.63;100462.66;4108663;28;21696;-51
2022/03/18 00:04:30;;;;;;;1.63;1.52;;;;;;;6.46;66.80;100468.41;4125180;28;20237;-52
2022/03/18 00:06:32;;;;;;;1.88;1.70;;;;;;;6.49;66.66;100463.47;4109291;28;20595;-51
2022/03/18 00:08:34;;;;;;;2.60;1.67;;;;;;;6.49;66.84;100468.09;4108384;28;20273;-51
2022/03/18 00:10:36;;;;;;;1.48;1.38;;;;;;;6.43;67.04;100458.75;4106444;28;20312;-51
2022/03/18 00:12:38;;;;;;;1.60;1.30;;;;;;;6.35;67.06;100463.38;4125884;28;20253;-51
2022/03/18 00:14:40;;;;;;;2.53;2.25;;;;;;;6.34;67.46;100464.38;4111671;28;20723;-52
2022/03/18 00:16:42;;;;;;;2.42;1.65;;;;;;;6.34;67.46;100472.53;4114066;28;20690;-52
2022/03/18 00:18:44;;;;;;;3.53;2.60;;;;;;;6.31;67.50;100471.06;4118810;28;20241;-52
2022/03/18 00:20:45;;;;;;;2.03;1.92;;;;;;;6.22;67.59;100465.81;4110656;28;20222;-51
2022/03/18 00:22:48;;;;;;;1.38;1.27;;;;;;;6.19;67.53;100471.56;4111434;28;20293;-51
2022/03/18 00:24:49;;;;;;;2.05;1.90;;;;;;;6.18;67.40;100464.44;4116780;28;20210;-51
2022/03/18 00:26:51;;;;;;;1.48;1.35;;;;;;;6.20;67.51;100460.53;4107614;28;20226;-51
2022/03/18 00:28:53;;;;;;;1.67;1.58;;;;;;;6.18;67.49;100465.31;4104582;28;20211;-51
2022/03/18 00:30:55;;;;;;;1.88;1.77;;;;;;;6.17;67.35;100466.31;4111083;28;20219;-51
2022/03/18 00:32:56;;;;;;;3.05;2.45;;;;;;;6.16;67.46;100471.94;4123008;28;20217;-51
2022/03/18 00:35:10;;;;;;;1.65;1.55;;;;;;;6.14;67.97;100465.81;4126507;28;20285;-51
2022/03/18 00:37:11;;;;;;;1.88;1.40;;;;;;;6.23;67.38;100464.78;4125124;28;20245;-51
2022/03/18 00:39:13;;;;;;;1.55;1.45;;;;;;;6.18;66.86;100464.44;4111681;28;20206;-51
2022/03/18 00:41:15;;;;;;;1.58;1.48;;;;;;;6.10;67.80;100475.34;4108282;28;20261;-51
2022/03/18 00:43:17;;;;;;;1.88;1.67;;;;;;;6.04;67.47;100468.72;4126125;28;20245;-52
2022/03/18 00:45:18;;;;;;;1.98;1.77;;;;;;;6.02;67.97;100469.94;4108174;28;20242;-51
2022/03/18 00:52:06;;;;;;;1.30;1.20;;;;;;;5.95;67.87;100466.22;4126120;28;20198;-52
2022/03/18 00:54:08;;;;;;;1.70;1.60;;;;;;;5.95;67.11;100471.66;4108151;28;20214;-52
2022/03/18 00:56:09;;;;;;;2.20;2.00;;;;;;;5.97;67.71;100465.00;4108108;28;20235;-52
2022/03/18 00:58:11;;;;;;;1.58;1.48;;;;;;;5.99;67.36;100470.28;4108116;28;20213;-52
2022/03/18 01:00:15;;;;;;;1.30;1.20;;;;;;;5.97;67.52;100477.75;4110432;28;20763;-51
2022/03/18 01:02:23;;;;;;;3.17;1.90;;;;;;;5.99;67.57;100470.28;4124657;28;20257;-52
2022/03/18 01:04:28;;;;;;;1.58;1.48;;;;;;;5.94;67.51;100475.38;4092615;28;20207;-52
2022/03/18 01:06:34;;;;;;;2.05;1.85;;;;;;;5.95;67.88;100472.50;4107033;28;20230;-52
2022/03/18 01:08:36;;;;;;;3.92;1.73;;;;;;;5.92;67.89;100474.69;4125175;28;20202;-52
2022/03/18 01:10:39;;;;;;;1.63;1.52;;;;;;;5.96;67.68;100476.91;4126573;28;20253;-51
2022/03/18 01:12:41;;;;;;;1.58;1.45;;;;;;;5.87;67.73;100472.50;4109324;28;20317;-52
2022/03/18 01:14:43;;;;;;;1.48;1.17;;;;;;;5.82;67.72;100468.63;4107090;28;20277;-51
2022/03/18 01:16:45;;;;;;;2.13;1.73;;;;;;;5.72;67.88;100470.63;4124204;28;20206;-51
2022/03/18 01:18:46;;;;;;;2.80;2.63;;;;;;;5.75;67.69;100462.97;4124875;28;20202;-52
2022/03/18 01:20:48;;;;;;;1.52;1.42;;;;;;;5.76;68.48;100474.72;4106744;28;20231;-53
2022/03/18 01:22:50;;;;;;;1.35;1.35;;;;;;;5.77;68.23;100477.22;4123473;28;20253;-53
2022/03/18 01:24:51;;;;;;;2.60;1.92;;;;;;;5.78;68.14;100478.09;4123251;28;20233;-52
2022/03/18 01:26:53;;;;;;;1.58;1.48;;;;;;;5.83;68.03;100475.75;4121908;28;20245;-52
2022/03/18 01:28:56;;;;;;;4.60;1.27;;;;;;;5.80;67.99;100478.78;4108009;28;20225;-52
2022/03/18 01:30:58;;;;;;;1.48;1.38;;;;;;;5.88;68.02;100478.81;4120912;28;20774;-51
2022/03/18 01:33:00;;;;;;;1.63;1.35;;;;;;;5.83;67.67;100481.19;4103976;28;20719;-51
2022/03/18 01:35:02;;;;;;;2.45;2.25;;;;;;;5.71;68.49;100477.09;4122542;28;20264;-52
2022/03/18 01:37:04;;;;;;;2.38;1.25;;;;;;;5.76;68.24;100474.72;4124459;28;20234;-52
2022/03/18 01:39:05;;;;;;;3.80;1.30;;;;;;;5.75;68.13;100478.44;4106792;28;20210;-53
2022/03/18 01:41:07;;;;;;;1.40;1.30;;;;;;;5.66;68.04;100480.31;4106089;28;20346;-53
2022/03/18 01:43:10;;;;;;;2.95;2.75;;;;;;;5.68;68.37;100483.69;4123579;28;20221;-52
2022/03/18 01:45:12;;;;;;;2.00;1.75;;;;;;;5.67;68.19;100481.16;4107051;28;20214;-52
2022/03/18 01:47:14;;;;;;;2.00;1.70;;;;;;;5.72;68.39;100479.63;4124770;28;20221;-51
2022/03/18 01:49:15;;;;;;;1.52;1.40;;;;;;;5.71;68.39;100483.38;4107651;28;20241;-52
2022/03/18 01:51:17;;;;;;;2.03;1.83;;;;;;;5.71;68.73;100472.50;4125992;28;20234;-53
2022/03/18 01:53:19;;;;;;;2.30;1.65;;;;;;;5.70;68.79;100469.97;4092294;28;20231;-53
2022/03/18 01:55:21;;;;;;;1.60;1.50;;;;;;;5.74;68.82;100476.72;4108476;28;20290;-52
2022/03/18 01:57:26;;;;;;;2.13;1.85;;;;;;;5.74;68.57;100465.84;4124128;28;20277;-53
2022/03/18 01:59:28;;;;;;;1.95;1.80;;;;;;;5.72;68.32;100476.91;4106263;28;20271;-52
2022/03/18 02:01:30;;;;;;;2.20;2.10;;;;;;;5.76;68.60;100480.97;4122932;28;20265;-52
2022/03/18 02:03:32;;;;;;;3.40;3.13;;;;;;;5.78;68.11;100472.66;4105386;28;20356;-52
2022/03/18 02:05:33;;;;;;;2.15;1.98;;;;;;;5.82;68.53;100474.88;4124906;28;20202;-52
2022/03/18 02:07:36;;;;;;;1.48;1.38;;;;;;;5.75;68.40;100483.88;4108349;28;20289;-52
2022/03/18 02:09:39;;;;;;;2.03;1.92;;;;;;;5.77;68.45;100484.56;4128845;28;20209;-51
2022/03/18 02:11:42;;;;;;;1.17;1.15;;;;;;;5.73;68.37;100483.19;4108853;28;20250;-52
2022/03/18 02:13:49;;;;;;;3.35;1.63;;;;;;;5.68;68.83;100472.84;4108710;28;20234;-51
2022/03/18 02:15:51;;;;;;;1.75;1.40;;;;;;;5.80;68.20;100476.06;4107470;28;20218;-52
2022/03/18 02:17:53;;;;;;;1.92;1.80;;;;;;;5.75;68.49;100478.44;4122644;28;20261;-52
2022/03/18 02:19:54;;;;;;;4.13;1.35;;;;;;;5.76;68.45;100480.13;4105035;28;20213;-52
2022/03/18 02:21:57;;;;;;;1.75;1.65;;;;;;;5.69;68.81;100487.28;4124638;28;20847;-52
2022/03/18 02:23:58;;;;;;;1.80;1.70;;;;;;;5.74;68.99;100479.44;4108233;28;21061;-52
2022/03/18 02:26:00;;;;;;;1.40;1.30;;;;;;;5.69;68.74;100481.84;4126779;28;20260;-52
2022/03/18 02:28:03;;;;;;;2.38;2.20;;;;;;;5.69;68.84;100485.38;4110005;28;20210;-53
2022/03/18 02:30:06;;;;;;;2.40;1.90;;;;;;;5.67;68.79;100481.16;4124040;28;20212;-52
2022/03/18 02:32:09;;;;;;;2.33;1.85;;;;;;;5.68;68.78;100483.69;4106839;28;20620;-52
2022/03/18 02:34:11;;;;;;;2.05;1.48;;;;;;;5.65;68.85;100488.63;4110036;28;20221;-52
2022/03/18 02:36:13;;;;;;;1.58;1.48;;;;;;;5.67;68.97;100492.00;4124094;28;20225;-53
2022/03/18 02:38:14;;;;;;;2.17;1.52;;;;;;;5.66;68.91;100485.75;4088713;28;20219;-52
2022/03/18 02:40:16;;;;;;;2.28;1.42;;;;;;;5.63;69.30;100486.06;4105123;28;20269;-52
2022/03/18 02:42:18;;;;;;;2.15;1.30;;;;;;;5.74;68.81;100488.44;4122391;28;20253;-52
2022/03/18 02:44:20;;;;;;;1.95;1.85;;;;;;;5.66;68.66;100490.31;4102805;28;20245;-52
2022/03/18 02:46:22;;;;;;;3.38;1.90;;;;;;;5.67;68.74;100492.00;4108498;28;20213;-56
2022/03/18 02:48:24;;;;;;;1.75;1.40;;;;;;;5.65;69.18;100491.34;4108391;28;20585;-51
2022/03/18 02:50:25;;;;;;;4.82;2.15;;;;;;;5.61;69.02;100482.69;4123168;28;20225;-51
2022/03/18 02:52:27;;;;;;;1.40;1.30;;;;;;;5.63;69.39;100487.97;4124407;28;20694;-52
2022/03/18 02:54:28;;;;;;;2.30;1.77;;;;;;;5.63;69.19;100486.06;4106937;28;20221;-51
2022/03/18 02:56:31;;;;;;;8.43;1.80;;;;;;;5.61;69.10;100492.69;4105506;28;20214;-53
2022/03/18 02:58:35;;;;;;;1.50;1.40;;;;;;;5.61;69.50;100492.69;4121724;28;21073;-51
2022/03/18 03:00:37;;;;;;;4.63;1.67;;;;;;;5.63;69.14;100504.25;4117966;28;20238;-51
2022/03/18 03:02:39;;;;;;;2.08;1.83;;;;;;;5.62;69.18;100497.13;4103500;28;20262;-53
2022/03/18 03:07:59;;;;;;;2.00;1.90;;;;;;;5.66;69.03;100506.63;4107354;28;20218;-52
2022/03/18 03:09:23;;;;;;;1.50;1.50;;;;;;;5.63;69.11;100494.22;4123081;28;20692;-52
2022/03/18 03:11:25;;;;;;;7.50;1.77;;;;;;;5.65;69.27;100499.50;4120891;28;20672;-52
2022/03/18 03:13:27;;;;;;;2.05;1.67;;;;;;;5.64;69.60;100508.66;4103709;28;20210;-52
2022/03/18 03:15:29;;;;;;;1.65;1.55;;;;;;;5.63;69.43;100507.78;4103346;28;20660;-52
2022/03/18 03:17:30;;;;;;;1.77;1.67;;;;;;;5.64;69.49;100508.66;4106993;28;20301;-52
2022/03/18 03:19:32;;;;;;;1.60;1.50;;;;;;;5.68;69.18;100504.56;4101893;28;20211;-52
2022/03/18 03:21:34;;;;;;;1.80;1.67;;;;;;;5.67;69.46;100500.16;4107621;28;20254;-50
2022/03/18 03:23:36;;;;;;;1.60;1.50;;;;;;;5.72;69.24;100505.94;4106567;28;20431;-53
2022/03/18 03:25:38;;;;;;;1.30;1.30;;;;;;;5.69;68.99;100509.84;4108715;28;20794;-52
2022/03/18 03:27:40;;;;;;;2.30;2.08;;;;;;;5.68;69.00;100515.44;4123853;28;20211;-52
2022/03/18 03:29:42;;;;;;;1.42;1.33;;;;;;;5.67;69.29;100519.16;4123563;28;20225;-52
2022/03/18 03:31:43;;;;;;;1.80;1.70;;;;;;;5.73;69.24;100523.94;4127200;28;20642;-52
2022/03/18 03:33:48;;;;;;;1.60;1.50;;;;;;;5.74;69.51;100514.75;4124790;28;21983;-52
2022/03/18 03:35:50;;;;;;;3.80;1.92;;;;;;;5.72;69.03;100522.22;4109458;28;20660;-52
2022/03/18 03:37:51;;;;;;;1.98;1.70;;;;;;;5.74;69.08;100514.75;4094605;28;20243;-52
2022/03/18 03:39:54;;;;;;;1.25;1.25;;;;;;;5.69;69.53;100522.59;4108088;28;20219;-52
2022/03/18 03:41:55;;;;;;;3.00;1.83;;;;;;;5.70;69.17;100524.28;4125204;28;21323;-52
2022/03/18 03:43:57;;;;;;;1.55;1.45;;;;;;;5.68;69.31;100520.84;4109743;28;20207;-52
2022/03/18 03:45:59;;;;;;;2.25;1.98;;;;;;;5.70;69.37;100532.44;4111444;28;20624;-52
2022/03/18 03:48:01;;;;;;;1.55;1.45;;;;;;;5.77;69.37;100522.56;4104461;28;20246;-53
2022/03/18 03:50:03;;;;;;;2.38;1.85;;;;;;;5.71;69.51;100531.41;4105752;28;20207;-52
2022/03/18 03:52:08;;;;;;;2.33;1.73;;;;;;;5.70;69.61;100535.16;4122796;28;20296;-51
2022/03/18 03:54:10;;;;;;;1.63;1.52;;;;;;;5.70;69.25;100535.97;4109682;28;20568;-52
2022/03/18 03:56:11;;;;;;;5.45;2.47;;;;;;;5.79;68.91;100534.13;4111465;28;20237;-52
2022/03/18 03:58:13;;;;;;;1.52;1.42;;;;;;;5.75;68.71;100541.75;4125409;28;20682;-52
2022/03/18 04:00:16;;;;;;;1.40;1.13;;;;;;;5.72;69.23;100531.25;4127849;28;20610;-51
2022/03/18 04:02:20;;;;;;;1.75;1.52;;;;;;;5.69;69.37;100539.72;4125957;28;20663;-52
2022/03/18 04:04:22;;;;;;;2.50;2.08;;;;;;;5.62;69.13;100544.13;4127437;28;20210;-51
2022/03/18 04:06:23;;;;;;;2.63;1.73;;;;;;;5.61;69.23;100552.44;4093167;28;20246;-51
2022/03/18 04:08:25;;;;;;;1.77;1.67;;;;;;;5.62;69.51;100544.13;4127057;28;20260;-51
2022/03/18 04:10:27;;;;;;;1.83;1.70;;;;;;;5.59;69.53;100555.34;4124896;28;20233;-51
2022/03/18 04:12:29;;;;;;;3.53;2.33;;;;;;;5.61;69.31;100547.00;4108704;28;20202;-51
2022/03/18 04:14:31;;;;;;;7.28;2.03;;;;;;;5.58;69.74;100553.66;4123833;28;20600;-52
2022/03/18 04:16:32;;;;;;;2.80;2.15;;;;;;;5.55;69.44;100558.56;4106868;28;20242;-51
2022/03/18 04:18:34;;;;;;;1.80;1.67;;;;;;;5.55;69.51;100561.28;4110910;28;20218;-51
2022/03/18 04:20:36;;;;;;;2.00;1.63;;;;;;;5.53;69.79;100561.44;4112486;28;20254;-51
2022/03/18 04:22:38;;;;;;;1.70;1.60;;;;;;;5.55;69.67;100566.72;4110378;28;20807;-51
2022/03/18 04:24:40;;;;;;;2.10;2.00;;;;;;;5.56;69.71;100571.13;4125129;28;20599;-52
2022/03/18 04:26:41;;;;;;;1.58;1.48;;;;;;;5.56;69.36;100571.13;4109091;28;20207;-51
2022/03/18 04:28:44;;;;;;;8.88;2.53;;;;;;;5.51;69.35;100568.06;4111187;28;20315;-51
2022/03/18 04:30:46;;;;;;;2.28;2.08;;;;;;;5.52;69.40;100580.59;4122586;28;20899;-52
2022/03/18 04:32:47;;;;;;;7.82;1.65;;;;;;;5.47;69.38;100588.41;4126772;28;20313;-52
2022/03/18 04:34:49;;;;;;;2.03;1.85;;;;;;;5.50;69.67;100585.38;4108568;28;20230;-52
2022/03/18 04:36:51;;;;;;;1.13;1.13;;;;;;;5.52;69.41;100586.03;4127586;28;20616;-51
2022/03/18 04:38:52;;;;;;;4.03;2.05;;;;;;;5.41;69.83;100589.06;4110747;28;20242;-52
2022/03/18 04:40:54;;;;;;;1.92;1.60;;;;;;;5.47;70.04;100599.25;4110503;28;20270;-51
2022/03/18 04:42:56;;;;;;;3.22;2.38;;;;;;;5.41;69.86;100589.06;4124774;28;20245;-51
2022/03/18 04:44:58;;;;;;;2.40;2.20;;;;;;;5.40;69.87;100593.66;4107862;28;20234;-50
2022/03/18 04:46:59;;;;;;;1.60;1.52;;;;;;;5.46;69.86;100597.56;4123572;28;20238;-51
2022/03/18 04:49:01;;;;;;;1.35;1.27;;;;;;;5.41;69.65;100600.78;4088998;28;20253;-51
2022/03/18 04:51:03;;;;;;;1.65;1.50;;;;;;;5.34;69.94;100594.31;4122731;28;20662;-51
2022/03/18 04:53:05;;;;;;;1.45;1.35;;;;;;;5.31;70.29;100599.22;4107870;28;20242;-51
2022/03/18 04:55:07;;;;;;;1.63;1.52;;;;;;;5.36;69.58;100599.59;4104397;28;20211;-52
2022/03/18 04:57:31;;;;;;;1.80;1.70;;;;;;;5.29;70.17;100606.69;4108784;28;20230;-51
2022/03/18 04:59:30;;;;;;;2.97;1.98;;;;;;;5.23;69.98;100613.63;4127561;28;20583;-51
2022/03/18 05:01:32;;;;;;;2.22;2.03;;;;;;;5.26;69.78;100607.88;4127791;28;20381;-51
2022/03/18 05:03:34;;;;;;;1.40;1.30;;;;;;;5.25;69.63;100605.31;4127278;28;20288;-52
2022/03/18 05:05:37;;;;;;;1.70;1.60;;;;;;;5.21;69.81;100604.78;4125559;28;20293;-53
2022/03/18 05:07:40;;;;;;;1.75;1.40;;;;;;;5.23;69.91;100601.94;4108735;28;20298;-52
2022/03/18 05:09:42;;;;;;;1.65;1.58;;;;;;;5.19;70.04;100603.25;4124500;28;20210;-51
2022/03/18 05:11:44;;;;;;;1.95;1.83;;;;;;;5.18;70.25;100615.13;4107533;28;20242;-52
2022/03/18 05:13:46;;;;;;;2.15;1.98;;;;;;;5.12;70.63;100613.06;4091216;28;20266;-51
2022/03/18 05:15:48;;;;;;;1.83;1.73;;;;;;;5.20;70.23;100605.81;4110256;28;20214;-52
2022/03/18 05:17:54;;;;;;;5.53;2.42;;;;;;;5.15;69.85;100610.06;4127144;28;20280;-52
2022/03/18 05:19:55;;;;;;;5.72;1.33;;;;;;;5.11;70.26;100608.66;4108808;28;20245;-52
2022/03/18 05:21:57;;;;;;;6.38;2.17;;;;;;;5.10;70.35;100615.94;4110807;28;20246;-54
2022/03/18 05:23:59;;;;;;;1.45;1.38;;;;;;;5.11;69.96;100614.09;4105200;28;20218;-52
2022/03/18 05:26:01;;;;;;;1.50;1.40;;;;;;;5.14;69.93;100611.03;4104726;28;20683;-52
2022/03/18 05:28:03;;;;;;;1.75;1.65;;;;;;;5.09;69.92;100610.69;4105338;28;20235;-52
2022/03/18 05:30:05;;;;;;;3.90;2.60;;;;;;;5.15;69.99;100620.91;4094494;28;20211;-53
2022/03/18 05:32:07;;;;;;;1.42;1.42;;;;;;;5.11;69.91;100619.53;4106267;28;20230;-54
2022/03/18 05:34:09;;;;;;;1.27;1.17;;;;;;;5.06;69.96;100623.75;4124462;28;20730;-52
2022/03/18 05:36:11;;;;;;;4.05;1.70;;;;;;;5.03;70.06;100627.63;4108055;28;20206;-52
2022/03/18 05:38:12;;;;;;;1.88;1.73;;;;;;;4.97;69.72;100622.84;4112045;28;20213;-52
2022/03/18 05:40:18;;;;;;;4.90;1.92;;;;;;;4.93;69.99;100624.19;4128802;28;20277;-52
2022/03/18 05:42:20;;;;;;;1.10;1.10;;;;;;;4.93;70.51;100629.59;4105946;28;20513;-52
2022/03/18 05:44:21;;;;;;;7.38;1.90;;;;;;;4.95;70.38;100630.31;4127172;28;20198;-52
2022/03/18 05:46:23;;;;;;;2.30;2.20;;;;;;;4.95;70.46;100635.75;4125761;28;20210;-52
2022/03/18 05:48:25;;;;;;;2.95;2.10;;;;;;;4.94;70.26;100636.72;4108847;28;20223;-53
2022/03/18 05:50:27;;;;;;;6.35;3.00;;;;;;;4.97;70.15;100644.56;4123113;28;20221;-52
2022/03/18 05:52:30;;;;;;;2.58;1.80;;;;;;;4.92;70.33;100646.91;4107657;28;20206;-51
2022/03/18 05:54:32;;;;;;;1.77;1.67;;;;;;;4.97;70.20;100644.56;4125103;28;20728;-51
2022/03/18 05:56:53;;;;;;;3.67;3.00;;;;;;;5.04;69.63;100643.72;4122303;28;20217;-51
2022/03/18 05:58:55;;;;;;;2.15;2.05;;;;;;;4.98;70.21;100646.25;4110067;28;20692;-51
2022/03/18 06:00:57;;;;;;;2.05;1.83;;;;;;;4.99;70.06;100652.53;4128863;28;20242;-51
2022/03/18 06:03:00;;;;;;;2.05;1.95;;;;;;;4.96;70.34;100653.72;4096764;28;20232;-55
2022/03/18 06:05:02;;;;;;;1.58;1.48;;;;;;;5.00;70.19;100654.25;4112286;28;20202;-51
2022/03/18 06:07:06;;;;;;;2.45;1.33;;;;;;;5.01;69.92;100655.94;4112073;28;20215;-51
2022/03/18 06:13:49;;;;;;;2.50;2.30;;;;;;;5.00;70.23;100665.09;4110716;28;20198;-51
2022/03/18 06:15:50;;;;;;;1.80;1.77;;;;;;;5.03;70.13;100677.31;4126757;28;20284;-52
2022/03/18 06:18:12;;;;;;;2.25;2.05;;;;;;;5.01;69.98;100666.78;4099831;28;20238;-51
2022/03/18 06:20:14;;;;;;;1.75;1.65;;;;;;;5.03;70.02;100681.03;4110105;28;20299;-51
2022/03/18 06:22:16;;;;;;;1.60;1.50;;;;;;;5.03;69.98;100672.91;4124078;28;20260;-52
2022/03/18 06:24:18;;;;;;;1.98;1.88;;;;;;;4.88;70.30;100678.06;4108153;28;20278;-53
2022/03/18 06:26:22;;;;;;;2.03;1.60;;;;;;;4.85;70.37;100682.97;4100538;28;20904;-52
2022/03/18 06:28:30;;;;;;;2.83;2.63;;;;;;;4.85;70.32;100683.81;4104958;28;20649;-53
2022/03/18 06:30:32;;;;;;;1.70;1.60;;;;;;;4.86;70.40;100693.66;4121529;28;20269;-55
2022/03/18 06:32:34;;;;;;;2.15;2.05;;;;;;;4.94;70.32;100696.41;4103368;28;20286;-52
2022/03/18 06:34:36;;;;;;;2.35;2.15;;;;;;;4.91;70.72;100694.03;4125418;28;20245;-51
2022/03/18 06:36:39;;;;;;;2.72;2.60;;;;;;;4.98;70.52;100697.81;4106965;28;20214;-54
2022/03/18 06:38:41;;;;;;;1.60;1.50;;;;;;;4.90;70.66;100700.47;4123759;28;20276;-52
2022/03/18 06:40:42;;;;;;;1.92;1.67;;;;;;;4.96;70.67;100693.53;4120323;28;20233;-53
2022/03/18 06:42:44;;;;;;;2.65;1.90;;;;;;;5.07;70.11;100705.81;4104101;28;20211;-52
2022/03/18 06:44:46;;;;;;;1.65;1.55;;;;;;;5.06;69.81;100710.56;4122256;28;20229;-55
2022/03/18 06:46:49;;;;;;;3.13;2.92;;;;;;;5.14;70.12;100706.00;4124141;28;20358;-52
2022/03/18 06:48:51;;;;;;;1.52;1.42;;;;;;;5.14;70.03;100715.03;4095434;28;20684;-52
2022/03/18 06:50:52;;;;;;;3.47;2.13;;;;;;;5.18;70.02;100719.13;4107973;28;20222;-51
2022/03/18 06:52:54;;;;;;;8.50;3.72;;;;;;;5.25;70.07;100724.75;4095589;28;20290;-53
2022/03/18 06:54:56;;;;;;;1.70;1.60;;;;;;;5.29;69.86;100726.13;4124929;28;20217;-54
2022/03/18 06:56:57;;;;;;;3.67;1.65;;;;;;;5.39;69.50;100725.00;4128798;28;20591;-52
2022/03/18 06:58:59;;;;;;;4.18;1.75;;;;;;;5.31;69.87;100734.94;4111130;28;20716;-53
2022/03/18 07:01:04;;;;;;;1.42;1.33;;;;;;;5.28;69.75;100730.69;4108452;28;20238;-53
2022/03/18 07:03:06;;;;;;;2.45;2.30;;;;;;;5.39;69.59;100725.00;4129420;28;20240;-53
2022/03/18 07:05:09;;;;;;;2.05;1.70;;;;;;;5.39;69.58;100722.28;4128112;28;20858;-56
2022/03/18 07:07:11;;;;;;;2.80;2.53;;;;;;;5.43;69.50;100728.22;4129641;28;20586;-54
2022/03/18 07:09:12;;;;;;;1.67;1.58;;;;;;;5.35;69.32;100730.91;4113583;28;20208;-53
2022/03/18 07:11:14;;;;;;;2.83;2.55;;;;;;;5.46;68.93;100727.88;4111362;28;20229;-53
2022/03/18 07:13:16;;;;;;;2.53;2.33;;;;;;;5.46;69.00;100733.31;4109483;28;20208;-53
2022/03/18 07:15:18;;;;;;;3.33;2.60;;;;;;;5.55;68.98;100735.91;4127777;28;20283;-55
2022/03/18 07:19:40;;;;;;;1.45;1.35;;;;;;;5.64;69.00;100748.47;4125824;28;20618;-55
2022/03/18 07:21:42;;;;;;;2.15;1.85;;;;;;;5.69;69.04;100734.44;4107181;28;20230;-54
2022/03/18 07:23:43;;;;;;;2.22;1.77;;;;;;;5.76;68.73;100735.47;4124773;28;20253;-53
2022/03/18 07:25:47;;;;;;;1.98;1.65;;;;;;;5.71;68.59;100726.97;4109071;28;20686;-53
2022/03/18 07:27:53;;;;;;;2.38;1.95;;;;;;;5.76;68.85;100730.03;4124687;28;20221;-52
2022/03/18 07:29:55;;;;;;;2.38;1.77;;;;;;;5.87;68.09;100729.75;4112453;28;20207;-53
2022/03/18 07:31:57;;;;;;;1.48;1.38;;;;;;;5.86;67.77;100731.63;4108806;28;20645;-53
2022/03/18 07:33:59;;;;;;;3.20;2.35;;;;;;;5.95;68.10;100730.63;4109755;28;20272;-54
2022/03/18 07:36:01;;;;;;;2.00;1.90;;;;;;;6.09;68.10;100731.84;4109797;28;20305;-55
2022/03/18 07:38:05;;;;;;;2.45;2.28;;;;;;;6.10;67.58;100733.56;4110984;28;20201;-53
2022/03/18 07:40:08;;;;;;;2.05;1.85;;;;;;;6.17;66.80;100729.13;4110021;28;20242;-51
2022/03/18 07:42:10;;;;;;;2.53;2.25;;;;;;;6.25;67.11;100738.16;4112128;28;20214;-52
2022/03/18 07:44:12;;;;;;;3.22;2.00;;;;;;;6.39;66.63;100742.06;4111795;28;20252;-52
2022/03/18 07:46:14;;;;;;;4.57;1.70;;;;;;;6.42;66.90;100750.72;4111833;28;20221;-51
2022/03/18 07:48:15;;;;;;;3.50;2.88;;;;;;;6.44;66.62;100745.13;4110970;28;20207;-51
2022/03/18 07:50:21;;;;;;;2.00;1.90;;;;;;;6.45;65.39;100744.13;4107982;28;20642;-52
2022/03/18 07:52:23;;;;;;;3.67;2.65;;;;;;;6.42;65.81;100744.47;4123641;28;20264;-54
2022/03/18 07:54:30;;;;;;;2.47;2.20;;;;;;;6.37;65.65;100744.13;4130187;28;20201;-53
2022/03/18 07:56:32;;;;;;;2.05;1.92;;;;;;;6.44;65.75;100747.84;4117089;28;20215;-52
2022/03/18 07:58:34;;;;;;;2.17;1.63;;;;;;;6.45;65.36;100744.13;4099378;28;20243;-53
2022/03/18 08:00:36;;;;;;;2.25;2.15;;;;;;;6.55;65.45;100744.81;4131628;28;20727;-55
2022/03/18 08:02:39;;;;;;;1.65;1.55;;;;;;;6.53;65.23;100746.81;4114020;28;20219;-51
2022/03/18 08:04:40;;;;;;;2.92;2.03;;;;;;;6.42;65.68;100749.91;4115743;28;20230;-55
2022/03/18 08:06:43;;;;;;;2.78;2.58;;;;;;;6.37;65.54;100742.22;4130640;28;20210;-54
2022/03/18 08:08:45;;;;;;;2.05;1.95;;;;;;;6.41;65.37;100757.19;4115341;28;20203;-53
2022/03/18 08:10:47;;;;;;;2.05;1.52;;;;;;;6.35;66.02;100754.31;4128957;28;20280;-53
2022/03/18 08:12:50;;;;;;;1.83;1.73;;;;;;;6.32;66.22;100760.06;4113277;28;20207;-51
2022/03/18 08:14:52;;;;;;;5.65;2.15;;;;;;;6.42;66.12;100760.78;4113934;28;20250;-52
2022/03/18 08:16:54;;;;;;;1.83;1.73;;;;;;;6.29;66.61;100768.59;4113852;28;20207;-52
2022/03/18 08:18:57;;;;;;;2.00;1.90;;;;;;;6.38;65.98;100753.97;4132497;28;20579;-52
2022/03/18 08:20:59;;;;;;;2.28;2.08;;;;;;;6.50;66.24;100775.22;4098353;28;20227;-56
2022/03/18 08:23:00;;;;;;;1.80;1.70;;;;;;;6.42;65.85;100768.94;4129424;28;20316;-52
2022/03/18 08:25:06;;;;;;;3.40;2.30;;;;;;;6.57;65.91;100773.50;4110949;28;20262;-52
2022/03/18 08:27:08;;;;;;;2.47;2.15;;;;;;;6.65;66.31;100761.78;4107034;28;20689;-52
2022/03/18 08:29:09;;;;;;;3.35;2.55;;;;;;;6.67;65.58;100770.63;4111620;28;20221;-53
2022/03/18 08:31:11;;;;;;;4.10;1.70;;;;;;;6.65;65.86;100772.69;4113911;28;20226;-53
2022/03/18 08:33:13;;;;;;;3.42;2.95;;;;;;;6.73;65.48;100769.94;4128325;28;20206;-54
2022/03/18 08:35:15;;;;;;;4.55;2.28;;;;;;;6.70;65.21;100783.91;4129250;28;20206;-53
2022/03/18 08:37:56;;;;;;;2.15;1.95;;;;;;;6.59;65.87;100778.78;4129147;28;20260;-54
2022/03/18 08:39:41;;;;;;;2.60;2.45;;;;;;;6.66;65.51;100777.09;4129745;28;20692;-53
2022/03/18 08:41:42;;;;;;;2.40;2.00;;;;;;;6.69;65.90;100780.31;4111491;28;20277;-52
2022/03/18 08:43:45;;;;;;;2.53;2.13;;;;;;;6.61;65.66;100782.19;4109594;28;20214;-53
2022/03/18 08:45:47;;;;;;;3.08;2.88;;;;;;;6.64;65.99;100777.28;4113235;28;20207;-53
2022/03/18 08:47:48;;;;;;;2.25;2.10;;;;;;;6.80;65.80;100770.97;4126154;28;20213;-52
2022/03/18 08:49:50;;;;;;;2.30;2.03;;;;;;;6.81;65.60;100772.66;4124912;28;20287;-52
2022/03/18 08:51:52;;;;;;;6.55;3.00;;;;;;;6.77;64.83;100783.03;4113634;28;20822;-51
2022/03/18 08:53:54;;;;;;;2.17;1.88;;;;;;;6.73;65.81;100770.81;4113327;28;20665;-52
2022/03/18 08:55:56;;;;;;;2.53;2.35;;;;;;;6.93;65.58;100784.91;4105457;28;20203;-52
2022/03/18 08:57:58;;;;;;;3.08;2.50;;;;;;;6.95;64.39;100791.88;4130328;28;20208;-52
2022/03/18 08:59:59;;;;;;;2.42;2.33;;;;;;;7.01;64.69;100779.44;4116633;28;20207;-52
2022/03/18 09:02:01;;;;;;;1.95;1.85;;;;;;;7.20;64.13;100771.78;4111975;28;20261;-52
2022/03/18 09:04:03;;;;;;;4.43;2.63;;;;;;;7.47;63.96;100781.38;4113314;28;20326;-53
2022/03/18 09:06:07;;;;;;;2.45;2.25;;;;;;;7.69;63.39;100780.66;4128278;28;20241;-53
2022/03/18 09:08:08;;;;;;;1.70;1.60;;;;;;;7.83;63.00;100785.38;4095881;28;20203;-52
2022/03/18 09:10:12;;;;;;;3.13;1.98;;;;;;;7.99;63.05;100798.91;4127485;28;20650;-52
2022/03/18 09:12:17;;;;;;;2.65;2.13;;;;;;;7.78;62.78;100796.81;4126775;28;20304;-53
2022/03/18 09:14:20;;;;;;;3.13;2.90;;;;;;;8.01;62.76;100797.72;4108905;28;20281;-51
2022/03/18 09:16:21;;;;;;;5.57;3.13;;;;;;;8.10;62.38;100784.88;4129737;28;20198;-52
2022/03/18 09:18:34;;;;;;;2.25;1.77;;;;;;;8.51;62.61;100800.00;4117830;28;20218;-51
2022/03/18 09:20:36;;;;;;;1.55;1.45;;;;;;;8.46;61.00;100805.16;4099514;28;20228;-52
2022/03/18 09:22:38;;;;;;;4.40;3.03;;;;;;;8.06;62.01;100800.75;4098465;28;20227;-52
2022/03/18 09:24:40;;;;;;;2.85;2.65;;;;;;;8.45;62.83;100795.25;4114298;28;20806;-53
2022/03/18 09:26:41;;;;;;;3.53;2.60;;;;;;;8.36;62.08;100812.72;4099346;28;20207;-53
2022/03/18 09:28:45;;;;;;;2.03;1.83;;;;;;;8.37;61.58;100804.38;4117996;28;20268;-52
2022/03/18 09:30:47;;;;;;;1.65;1.55;;;;;;;8.31;61.89;100802.34;4115565;28;20234;-52
2022/03/18 09:32:49;;;;;;;2.20;1.90;;;;;;;8.34;61.61;100790.25;4112509;28;20202;-53
2022/03/18 09:34:51;;;;;;;2.92;1.95;;;;;;;8.33;61.67;100797.56;4113760;28;20258;-53
2022/03/18 09:36:54;;;;;;;2.45;1.92;;;;;;;8.39;61.31;100801.44;4114021;28;20712;-53
2022/03/18 09:38:55;;;;;;;3.20;2.92;;;;;;;8.55;61.17;100798.63;4109624;28;20222;-53
2022/03/18 09:40:57;;;;;;;2.40;2.20;;;;;;;9.06;60.84;100806.03;4113900;28;20257;-54
2022/03/18 09:43:08;;;;;;;3.13;1.90;;;;;;;9.42;59.37;100807.06;4113690;28;20229;-53
2022/03/18 09:45:10;;;;;;;2.00;1.77;;;;;;;9.42;58.49;100801.59;4130914;28;20225;-51
2022/03/18 09:47:12;;;;;;;2.20;2.00;;;;;;;9.22;59.64;100805.91;4129503;28;20222;-52
2022/03/18 09:49:15;;;;;;;4.78;2.42;;;;;;;9.18;59.91;100801.84;4130825;28;20579;-51
2022/03/18 09:51:17;;;;;;;2.53;2.00;;;;;;;9.45;59.24;100804.81;4111467;28;20743;-52